Time;durP1;ratioP1;P1;durP2;ratioP2;P2;SDS_P1;SDS_P2;PMS_P1;PMS_P2;Temp;Humidity;BMP_temperature;BMP_pressure;BME280_temperature;BME280_humidity;BME280_pressure;Samples;Min_cycle;Max_cycle;Signal;HPM_P1;HPM_P2
2021/12/11 00:00:40;;;;;;;6.38;4.22;;;;;;;5.75;52.64;92933.31;4952448;28;19981;-76
2021/12/11 00:03:08;;;;;;;7.70;5.13;;;;;;;5.89;52.47;92960.38;4947062;28;20561;-76
2021/12/11 00:05:36;;;;;;;9.07;4.78;;;;;;;5.86;52.22;92955.72;4950711;28;20111;-76
2021/12/11 00:08:25;;;;;;;8.45;4.43;;;;;;;6.03;52.01;92960.25;4949994;28;20042;-76
2021/12/11 00:11:01;;;;;;;7.55;4.80;;;;;;;5.98;52.18;92955.91;4946310;28;20070;-76
2021/12/11 00:13:30;;;;;;;9.60;5.32;;;;;;;5.98;52.15;92974.38;4948871;28;20027;-76
2021/12/11 00:15:56;;;;;;;10.38;6.35;;;;;;;6.05;51.95;92986.38;4946800;28;20075;-77
2021/12/11 00:18:27;;;;;;;7.43;5.20;;;;;;;6.11;52.18;92993.06;4953157;28;20043;-77
2021/12/11 00:21:03;;;;;;;7.90;4.55;;;;;;;6.04;51.96;93000.63;4952917;28;20484;-75
2021/12/11 00:23:34;;;;;;;6.72;3.75;;;;;;;5.94;52.09;92980.56;4965075;28;20031;-76
2021/12/11 00:26:01;;;;;;;7.70;4.25;;;;;;;5.64;52.53;92990.03;4948402;28;20031;-76
2021/12/11 00:28:27;;;;;;;8.20;5.28;;;;;;;5.90;52.84;92990.97;4945657;28;20340;-76
2021/12/11 00:30:53;;;;;;;8.93;5.20;;;;;;;6.05;52.22;92996.94;4948509;28;20034;-77
2021/12/11 00:33:25;;;;;;;6.40;4.13;;;;;;;5.92;52.06;92975.59;4940909;28;20502;-76
2021/12/11 00:35:53;;;;;;;6.05;4.18;;;;;;;5.97;52.38;92987.88;4951335;28;20287;-76
2021/12/11 00:38:32;;;;;;;8.52;5.13;;;;;;;6.00;51.87;92982.78;4962132;28;20034;-75
2021/12/11 00:40:58;;;;;;;6.85;4.70;;;;;;;6.06;52.05;92982.66;4960285;28;20098;-76
2021/12/11 00:43:29;;;;;;;5.82;4.13;;;;;;;6.16;51.63;92974.50;4947468;28;20462;-76
2021/12/11 00:45:58;;;;;;;6.75;3.25;;;;;;;6.26;51.18;92979.50;4944595;28;20054;-76
2021/12/11 00:48:26;;;;;;;5.53;3.42;;;;;;;5.98;51.50;92958.53;4948864;28;21288;-77
2021/12/11 00:51:00;;;;;;;6.35;3.50;;;;;;;5.39;52.86;92965.06;4949913;28;20078;-77
2021/12/11 00:53:31;;;;;;;4.10;3.30;;;;;;;4.19;56.25;92970.06;4948829;28;20027;-76
2021/12/11 00:56:04;;;;;;;5.85;3.60;;;;;;;3.98;58.15;92971.50;4941310;28;20019;-76
2021/12/11 00:58:33;;;;;;;6.47;3.33;;;;;;;4.38;57.53;92959.44;4946114;28;20043;-76
2021/12/11 01:01:07;;;;;;;5.05;3.05;;;;;;;4.77;56.67;92964.13;4945448;28;20039;-76
2021/12/11 01:03:36;;;;;;;4.78;2.85;;;;;;;4.85;55.94;92942.34;4938865;28;20039;-75
2021/12/11 01:06:19;;;;;;;7.63;4.07;;;;;;;5.31;54.92;92978.97;4948325;28;20466;-77
2021/12/11 01:08:54;;;;;;;3.90;2.92;;;;;;;5.29;55.04;92952.13;4972760;28;20043;-76
2021/12/11 01:11:41;;;;;;;4.85;3.35;;;;;;;5.47;54.53;92963.56;4950268;28;20154;-76
2021/12/11 01:14:30;;;;;;;6.35;2.75;;;;;;;5.26;54.64;92959.84;4950473;28;20031;-77
2021/12/11 01:17:20;;;;;;;4.47;3.30;;;;;;;5.54;54.25;92956.78;4956360;28;20035;-77
2021/12/11 01:19:51;;;;;;;4.82;3.05;;;;;;;5.71;53.48;92956.09;4954574;28;20844;-76
2021/12/11 01:22:33;;;;;;;5.63;3.00;;;;;;;5.66;53.55;92950.16;4946457;28;20043;-76
2021/12/11 01:25:11;;;;;;;4.35;2.85;;;;;;;5.73;53.34;92955.78;4949028;28;20478;-76
2021/12/11 01:27:40;;;;;;;5.40;3.40;;;;;;;6.00;52.86;92961.66;4962077;28;20050;-77
2021/12/11 01:30:11;;;;;;;6.57;2.80;;;;;;;6.13;52.56;92972.41;4942477;28;20058;-76
2021/12/11 01:32:38;;;;;;;6.72;2.75;;;;;;;6.16;51.87;92954.16;4953687;28;20042;-76
2021/12/11 01:35:06;;;;;;;2.72;2.15;;;;;;;6.19;51.55;92963.31;4937237;28;20098;-76
2021/12/11 01:37:31;;;;;;;3.15;2.17;;;;;;;6.02;51.57;92927.03;4956505;28;20035;-76
2021/12/11 01:39:57;;;;;;;5.07;2.47;;;;;;;6.14;50.72;92919.31;4955269;28;20469;-76
2021/12/11 01:42:27;;;;;;;6.03;1.80;;;;;;;5.99;50.93;92922.38;4967064;28;20094;-76
2021/12/11 01:44:56;;;;;;;2.03;1.60;;;;;;;6.09;51.06;92937.94;4963625;28;20560;-77
2021/12/11 01:47:29;;;;;;;2.35;1.63;;;;;;;6.06;51.21;92932.50;4973371;28;20675;-76
2021/12/11 01:50:01;;;;;;;2.97;1.60;;;;;;;5.96;51.86;92936.97;4956435;28;20383;-76
2021/12/11 01:52:38;;;;;;;2.88;2.03;;;;;;;5.99;51.71;92928.44;4967069;28;20099;-77
2021/12/11 01:55:10;;;;;;;3.13;2.03;;;;;;;6.14;51.67;92929.88;4966936;28;20045;-76
2021/12/11 01:57:36;;;;;;;2.38;1.73;;;;;;;6.04;51.66;92905.63;4966728;28;20597;-77
2021/12/11 02:00:14;;;;;;;2.10;1.83;;;;;;;6.29;50.96;92926.06;4960408;28;20716;-76
2021/12/11 02:02:46;;;;;;;2.38;1.85;;;;;;;6.19;51.18;92900.72;4938208;28;20129;-76
2021/12/11 02:05:15;;;;;;;17.38;6.32;;;;;;;6.25;51.14;92925.13;4946834;28;20148;-77
2021/12/11 02:07:50;;;;;;;3.85;2.63;;;;;;;6.23;51.60;92924.66;4954703;28;20512;-77
2021/12/11 02:10:25;;;;;;;3.97;2.33;;;;;;;6.17;51.82;92929.28;4953744;28;20117;-77
2021/12/11 02:12:52;;;;;;;7.65;4.55;;;;;;;5.26;52.40;92909.75;4953838;28;20135;-76
2021/12/11 02:15:29;;;;;;;6.63;3.40;;;;;;;3.90;56.90;92935.38;4955416;28;20718;-76
2021/12/11 02:18:15;;;;;;;5.90;3.45;;;;;;;4.57;56.21;92914.53;4956461;28;20039;-77
2021/12/11 02:20:49;;;;;;;5.28;4.07;;;;;;;4.97;55.09;92913.63;4936976;28;20043;-76
2021/12/11 02:23:15;;;;;;;5.30;3.58;;;;;;;5.10;53.91;92906.72;4951914;28;20474;-77
2021/12/11 02:25:46;;;;;;;7.32;3.10;;;;;;;5.30;53.12;92916.00;4935531;28;20031;-77
2021/12/11 02:28:27;;;;;;;5.68;2.75;;;;;;;5.16;52.99;92868.63;4954923;28;20837;-76
2021/12/11 02:31:29;;;;;;;3.05;2.60;;;;;;;5.73;52.32;92924.91;4955271;28;20081;-76
2021/12/11 02:33:58;;;;;;;3.42;2.70;;;;;;;5.48;52.46;92918.41;4950349;28;20046;-76
2021/12/11 02:36:34;;;;;;;2.60;1.85;;;;;;;5.41;53.33;92923.34;4950758;28;20381;-76
2021/12/11 02:39:23;;;;;;;2.03;1.70;;;;;;;5.36;52.70;92914.78;4931974;28;20182;-75
2021/12/11 02:41:58;;;;;;;4.53;1.50;;;;;;;5.55;52.85;92925.91;4932461;28;20121;-76
2021/12/11 02:44:24;;;;;;;1.58;1.48;;;;;;;5.68;52.52;92911.06;4954898;28;20263;-75
2021/12/11 02:47:01;;;;;;;1.95;1.52;;;;;;;5.73;52.15;92898.53;4943272;28;21248;-75
2021/12/11 02:49:35;;;;;;;1.77;1.35;;;;;;;5.90;51.74;92895.97;4954917;28;20047;-76
2021/12/11 02:52:04;;;;;;;2.20;1.38;;;;;;;5.40;51.78;92900.69;4934933;28;20064;-75
2021/12/11 02:54:39;;;;;;;2.38;1.17;;;;;;;4.86;53.17;92891.22;4951637;28;20035;-77
2021/12/11 02:57:16;;;;;;;2.80;2.10;;;;;;;4.39;54.75;92883.88;4925780;28;20050;-77
2021/12/11 02:59:44;;;;;;;5.00;2.88;;;;;;;4.05;56.64;92889.56;4953558;28;20070;-76
2021/12/11 03:02:22;;;;;;;5.45;2.70;;;;;;;3.31;58.55;92884.38;4945342;28;20104;-76
2021/12/11 03:05:04;;;;;;;6.28;2.70;;;;;;;3.41;58.87;92857.13;4942294;28;20031;-76
2021/12/11 03:07:36;;;;;;;7.43;2.55;;;;;;;4.08;58.17;92849.50;4955842;28;20035;-77
2021/12/11 03:10:10;;;;;;;2.97;2.20;;;;;;;4.66;57.12;92884.56;4956260;28;20039;-76
2021/12/11 03:12:36;;;;;;;2.97;2.13;;;;;;;4.98;56.02;92890.69;4935859;28;20552;-74
2021/12/11 03:15:05;;;;;;;3.10;2.28;;;;;;;4.69;56.13;92870.03;4950214;28;20046;-75
2021/12/11 03:17:30;;;;;;;3.28;1.80;;;;;;;4.90;55.94;92878.22;4953293;28;20042;-75
2021/12/11 03:19:56;;;;;;;3.08;2.10;;;;;;;5.23;55.55;92884.03;4950500;28;20019;-75
2021/12/11 03:22:29;;;;;;;3.15;2.35;;;;;;;5.37;55.11;92868.91;4945649;28;20698;-75
2021/12/11 03:24:59;;;;;;;3.03;1.95;;;;;;;4.64;55.69;92810.34;4955018;28;20042;-75
2021/12/11 03:27:25;;;;;;;3.25;2.22;;;;;;;5.39;55.30;92861.44;4936696;28;20561;-75
2021/12/11 03:29:51;;;;;;;4.10;1.98;;;;;;;5.64;54.77;92866.06;4947787;28;20093;-75
2021/12/11 03:32:17;;;;;;;3.90;2.15;;;;;;;5.92;54.17;92879.81;4953506;28;20031;-76
2021/12/11 03:34:45;;;;;;;3.85;2.25;;;;;;;6.00;53.78;92864.00;4946625;28;20031;-75
2021/12/11 03:37:16;;;;;;;3.33;2.00;;;;;;;6.15;53.60;92854.09;4953820;28;20043;-75
2021/12/11 03:39:45;;;;;;;4.32;2.13;;;;;;;6.20;53.34;92844.19;4955882;28;20118;-75
2021/12/11 03:42:14;;;;;;;2.42;1.83;;;;;;;6.23;52.97;92837.50;4953835;28;20045;-75
2021/12/11 03:44:41;;;;;;;3.13;1.92;;;;;;;6.26;52.81;92845.59;4950820;28;20461;-75
2021/12/11 03:47:25;;;;;;;2.33;2.08;;;;;;;6.45;52.64;92849.81;4952919;28;20089;-75
2021/12/11 03:49:51;;;;;;;2.58;1.95;;;;;;;6.38;52.58;92837.06;4955039;28;20039;-75
2021/12/11 03:52:17;;;;;;;25.70;8.20;;;;;;;6.53;52.36;92855.09;4959900;28;20093;-74
2021/12/11 03:54:45;;;;;;;16.88;7.05;;;;;;;6.47;52.02;92832.56;4964910;28;20516;-75
2021/12/11 03:57:15;;;;;;;8.23;4.53;;;;;;;6.47;52.25;92829.91;4968332;28;20481;-76
2021/12/11 03:59:43;;;;;;;8.13;2.92;;;;;;;6.63;51.94;92849.50;4970069;28;20189;-75
2021/12/11 04:02:11;;;;;;;2.75;2.20;;;;;;;6.59;51.70;92845.94;4962644;28;20037;-76
2021/12/11 04:04:45;;;;;;;3.28;2.28;;;;;;;6.54;51.96;92872.50;4964135;28;20050;-75
2021/12/11 04:07:15;;;;;;;5.60;2.45;;;;;;;6.24;52.55;92876.81;4966588;28;20050;-76
2021/12/11 04:09:41;;;;;;;3.17;2.88;;;;;;;5.95;53.69;92885.25;4960532;28;20093;-75
2021/12/11 04:12:08;;;;;;;4.57;2.20;;;;;;;5.56;54.71;92866.81;4966641;28;20347;-75
2021/12/11 04:14:41;;;;;;;3.38;2.50;;;;;;;5.63;54.85;92882.97;4963412;28;20058;-74
2021/12/11 04:17:10;;;;;;;5.45;3.75;;;;;;;5.43;55.44;92883.50;4948591;28;20027;-75
2021/12/11 04:19:38;;;;;;;4.75;3.00;;;;;;;5.39;55.93;92866.72;4967849;28;20043;-75
2021/12/11 04:22:04;;;;;;;4.72;3.13;;;;;;;4.86;56.49;92832.47;4959560;28;20031;-75
2021/12/11 04:24:34;;;;;;;4.55;3.00;;;;;;;4.90;56.59;92839.47;4961975;28;20058;-75
2021/12/11 04:27:02;;;;;;;7.40;3.67;;;;;;;5.16;57.14;92875.75;4967337;28;20122;-76
2021/12/11 04:29:29;;;;;;;4.70;3.45;;;;;;;4.89;57.70;92859.03;4962950;28;20031;-75
2021/12/11 04:31:55;;;;;;;3.28;2.47;;;;;;;5.07;57.69;92862.53;4962744;28;20974;-75
2021/12/11 04:34:22;;;;;;;3.38;2.67;;;;;;;4.53;59.07;92847.75;4963415;28;20039;-76
2021/12/11 04:37:00;;;;;;;2.88;2.00;;;;;;;4.51;58.63;92797.22;4949987;28;20074;-76
2021/12/11 04:39:34;;;;;;;2.67;2.30;;;;;;;4.67;59.49;92845.84;4962204;28;20051;-75
2021/12/11 04:42:08;;;;;;;3.90;2.63;;;;;;;5.06;58.84;92848.56;4963278;28;20091;-75
2021/12/11 04:44:40;;;;;;;4.32;3.05;;;;;;;5.29;58.11;92828.22;4967040;28;20038;-75
2021/12/11 04:47:14;;;;;;;3.47;2.45;;;;;;;5.10;58.89;92828.44;4964262;28;20042;-76
2021/12/11 04:49:48;;;;;;;3.03;2.47;;;;;;;5.13;59.09;92830.47;4964650;28;20049;-75
2021/12/11 04:52:33;;;;;;;2.60;1.83;;;;;;;5.51;58.25;92830.03;4961975;28;20031;-76
2021/12/11 04:55:19;;;;;;;2.05;1.73;;;;;;;5.53;58.11;92836.53;4970936;28;20035;-76
2021/12/11 05:01:33;;;;;;;1.60;1.48;;;;;;;4.76;60.28;92833.50;4964986;28;20042;-76
2021/12/11 05:06:33;;;;;;;2.55;1.88;;;;;;;4.06;64.54;92841.88;4967770;28;20126;-76
2021/12/11 05:11:45;;;;;;;2.28;1.83;;;;;;;3.90;66.04;92822.25;4973252;28;20031;-75
2021/12/11 05:14:13;;;;;;;2.22;1.73;;;;;;;3.76;66.10;92839.91;4962707;28;20035;-75
2021/12/11 05:16:40;;;;;;;3.00;1.95;;;;;;;3.78;66.86;92824.59;4968970;28;20018;-75
2021/12/11 05:19:06;;;;;;;3.22;1.90;;;;;;;4.17;66.02;92837.97;4959499;28;20038;-76
2021/12/11 05:21:33;;;;;;;3.20;2.33;;;;;;;4.16;65.08;92815.34;4967573;28;20031;-75
2021/12/11 05:23:59;;;;;;;2.35;1.67;;;;;;;4.13;65.55;92829.13;4963173;28;20141;-75
2021/12/11 05:26:26;;;;;;;2.53;2.17;;;;;;;3.93;65.11;92829.53;4959956;28;20026;-75
2021/12/11 05:28:52;;;;;;;2.08;1.70;;;;;;;4.27;65.01;92845.66;4967163;28;20436;-75
2021/12/11 05:31:17;;;;;;;4.68;2.83;;;;;;;4.82;63.29;92837.56;4961440;28;20045;-75
2021/12/11 05:33:44;;;;;;;7.18;2.75;;;;;;;4.98;62.32;92820.31;4965842;28;20039;-75
2021/12/11 05:36:13;;;;;;;3.45;3.15;;;;;;;5.21;60.47;92831.59;4960071;28;20122;-76
2021/12/11 05:38:39;;;;;;;6.72;4.45;;;;;;;5.28;59.64;92849.63;4963731;28;20528;-75
2021/12/11 05:41:07;;;;;;;9.63;5.72;;;;;;;5.20;59.60;92855.59;4965467;28;20110;-75
2021/12/11 05:43:34;;;;;;;8.13;6.20;;;;;;;4.93;60.34;92849.44;4963269;28;20703;-75
2021/12/11 05:46:00;;;;;;;9.93;5.63;;;;;;;4.90;60.65;92843.97;4964458;28;20158;-75
2021/12/11 05:48:27;;;;;;;6.28;4.70;;;;;;;4.91;60.83;92843.66;4971541;28;20504;-75
2021/12/11 05:50:57;;;;;;;7.68;5.30;;;;;;;4.88;61.30;92852.19;4965697;28;20519;-75
2021/12/11 05:53:25;;;;;;;8.90;5.88;;;;;;;5.04;61.18;92861.25;4974206;28;20035;-76
2021/12/11 05:55:54;;;;;;;13.63;9.23;;;;;;;5.13;60.63;92863.97;4967994;28;20057;-75
2021/12/11 05:59:02;;;;;;;9.00;6.72;;;;;;;5.17;60.84;92866.78;4967781;28;20031;-75
2021/12/11 06:01:08;;;;;;;10.40;6.72;;;;;;;4.73;60.85;92857.03;4973099;28;20282;-75
2021/12/11 06:03:37;;;;;;;12.38;8.10;;;;;;;4.82;61.55;92874.44;4967816;28;20034;-75
2021/12/11 06:06:03;;;;;;;13.32;6.97;;;;;;;4.76;61.55;92849.31;4966479;28;20523;-74
2021/12/11 06:08:31;;;;;;;11.90;6.50;;;;;;;4.98;61.43;92878.28;4973676;28;20043;-75
2021/12/11 06:10:57;;;;;;;9.10;5.97;;;;;;;4.81;61.36;92849.19;4960850;28;20038;-75
2021/12/11 06:13:25;;;;;;;8.38;5.25;;;;;;;5.10;60.77;92846.88;4965490;28;20038;-75
2021/12/11 06:15:51;;;;;;;6.75;4.40;;;;;;;5.42;59.81;92879.31;4962122;28;20511;-75
2021/12/11 06:18:18;;;;;;;6.38;4.25;;;;;;;5.39;59.51;92861.44;4971966;28;20041;-75
2021/12/11 06:20:45;;;;;;;11.32;4.60;;;;;;;5.47;59.45;92884.47;4961597;28;20054;-75
2021/12/11 06:23:11;;;;;;;12.80;6.85;;;;;;;5.22;59.69;92864.00;4962487;28;20027;-75
2021/12/11 06:25:37;;;;;;;12.25;7.25;;;;;;;5.26;59.61;92857.03;4971474;28;20027;-75
2021/12/11 06:28:05;;;;;;;8.20;5.32;;;;;;;5.39;59.58;92887.81;4962357;28;20125;-75
2021/12/11 06:30:31;;;;;;;10.80;5.65;;;;;;;5.44;59.61;92891.09;4965697;28;20149;-76
2021/12/11 06:32:57;;;;;;;7.45;4.18;;;;;;;5.48;59.68;92880.75;4966131;28;20710;-75
2021/12/11 06:35:28;;;;;;;10.88;5.18;;;;;;;5.41;60.17;92880.38;4969589;28;20046;-75
2021/12/11 06:37:55;;;;;;;14.70;8.73;;;;;;;5.34;60.46;92887.94;4964232;28;20029;-75
2021/12/11 06:40:21;;;;;;;10.43;4.45;;;;;;;5.33;60.32;92881.13;4972297;28;20062;-76
2021/12/11 06:42:47;;;;;;;9.93;6.00;;;;;;;5.52;59.73;92877.19;4965555;28;20091;-75
2021/12/11 06:45:12;;;;;;;6.88;4.93;;;;;;;5.30;60.04;92852.72;4966629;28;20111;-75
2021/12/11 06:47:38;;;;;;;6.53;4.38;;;;;;;5.46;60.10;92861.78;4966293;28;20049;-76
2021/12/11 06:50:06;;;;;;;5.28;4.32;;;;;;;5.70;59.77;92878.03;4964107;28;20033;-75
2021/12/11 06:52:32;;;;;;;6.40;4.28;;;;;;;5.75;59.37;92859.44;4963435;28;20034;-74
2021/12/11 06:54:58;;;;;;;9.73;4.90;;;;;;;6.09;58.42;92866.66;4961157;28;20155;-75
2021/12/11 06:57:24;;;;;;;9.25;5.68;;;;;;;6.00;58.32;92850.03;4966311;28;20823;-75
2021/12/11 06:59:49;;;;;;;9.93;5.25;;;;;;;6.24;58.00;92876.03;4971139;28;20063;-76
2021/12/11 07:02:17;;;;;;;8.73;6.00;;;;;;;6.11;58.29;92853.94;4962314;28;20042;-75
2021/12/11 07:04:46;;;;;;;9.32;5.85;;;;;;;6.03;57.88;92844.13;4967677;28;20125;-74
2021/12/11 07:07:18;;;;;;;7.40;4.88;;;;;;;6.00;58.17;92829.69;4974058;28;20042;-75
2021/12/11 07:09:44;;;;;;;8.18;4.30;;;;;;;6.15;58.26;92830.34;4961624;28;20662;-75
2021/12/11 07:12:10;;;;;;;6.47;4.20;;;;;;;6.19;57.97;92824.16;4971723;28;20035;-75
2021/12/11 07:14:39;;;;;;;7.55;5.18;;;;;;;6.30;57.93;92837.84;4957296;28;20055;-75
2021/12/11 07:17:04;;;;;;;11.40;5.78;;;;;;;6.45;58.14;92857.75;4971151;28;20044;-76
2021/12/11 07:19:30;;;;;;;15.20;7.72;;;;;;;6.20;58.46;92853.97;4972138;28;20039;-75
2021/12/11 07:21:55;;;;;;;20.98;11.68;;;;;;;5.72;59.82;92811.78;4959817;28;20043;-75
2021/12/11 07:24:37;;;;;;;15.05;9.50;;;;;;;6.28;59.46;92845.28;4970700;28;20034;-76
2021/12/11 07:27:07;;;;;;;15.07;9.20;;;;;;;6.31;58.85;92842.06;4966667;28;20102;-76
2021/12/11 07:29:33;;;;;;;15.63;10.00;;;;;;;5.71;60.50;92818.13;4969076;28;20038;-75
2021/12/11 07:31:59;;;;;;;21.17;12.73;;;;;;;5.68;60.59;92830.06;4969206;28;20027;-76
2021/12/11 07:34:24;;;;;;;27.63;15.30;;;;;;;6.10;60.70;92851.59;4966566;28;20039;-75
2021/12/11 07:36:53;;;;;;;18.52;10.93;;;;;;;5.79;60.29;92828.72;4969949;28;20039;-75
2021/12/11 07:39:20;;;;;;;14.40;8.73;;;;;;;5.79;60.18;92828.72;4966270;28;20050;-75
2021/12/11 07:41:47;;;;;;;10.93;7.88;;;;;;;5.99;59.75;92845.84;4966796;28;20111;-75
2021/12/11 07:44:13;;;;;;;13.70;8.48;;;;;;;6.19;59.41;92831.31;4967177;28;20038;-75
2021/12/11 07:46:39;;;;;;;11.63;8.07;;;;;;;6.46;58.77;92836.28;4958292;28;20098;-74
2021/12/11 07:49:06;;;;;;;10.60;7.35;;;;;;;6.39;57.94;92836.78;4953030;28;20050;-75
2021/12/11 07:51:33;;;;;;;12.10;7.68;;;;;;;6.02;59.05;92841.81;4967899;28;20062;-76
2021/12/11 07:53:59;;;;;;;14.60;8.20;;;;;;;5.94;60.00;92841.47;4970745;28;20038;-75
2021/12/11 07:56:25;;;;;;;35.88;17.95;;;;;;;6.20;59.71;92823.09;4967049;28;20069;-77
2021/12/11 07:58:54;;;;;;;24.17;13.10;;;;;;;6.28;59.14;92818.88;4963877;28;20673;-76
2021/12/11 08:01:21;;;;;;;14.32;8.43;;;;;;;5.57;61.01;92834.09;4973314;28;20120;-76
2021/12/11 08:03:47;;;;;;;15.45;8.93;;;;;;;5.57;61.51;92797.16;4974725;28;20119;-75
2021/12/11 08:06:14;;;;;;;18.00;8.88;;;;;;;5.05;63.25;92810.13;4974383;28;20577;-75
2021/12/11 08:08:43;;;;;;;12.55;8.18;;;;;;;5.41;64.09;92832.94;4965767;28;20050;-75
2021/12/11 08:11:13;;;;;;;10.60;7.60;;;;;;;5.57;63.17;92831.44;4968925;28;20046;-76
2021/12/11 08:13:41;;;;;;;10.88;6.32;;;;;;;5.05;64.71;92840.97;4966628;28;20070;-76
2021/12/11 08:16:07;;;;;;;11.07;6.18;;;;;;;4.78;66.07;92839.25;4968323;28;20039;-75
2021/12/11 08:18:33;;;;;;;11.82;6.18;;;;;;;4.42;66.82;92812.19;4966778;28;20050;-75
2021/12/11 08:20:59;;;;;;;9.35;6.07;;;;;;;3.58;68.58;92767.16;4968352;28;20039;-76
2021/12/11 08:23:25;;;;;;;12.07;6.57;;;;;;;3.54;70.07;92803.00;4967066;28;20714;-76
2021/12/11 08:25:52;;;;;;;12.02;5.70;;;;;;;3.71;70.60;92829.50;4972679;28;20094;-75
2021/12/11 08:28:23;;;;;;;11.25;6.78;;;;;;;3.80;70.48;92830.34;4973610;28;20039;-75
2021/12/11 08:30:51;;;;;;;15.88;7.32;;;;;;;3.72;71.29;92817.91;4968341;28;20039;-76
2021/12/11 08:33:17;;;;;;;10.88;6.30;;;;;;;3.84;70.75;92786.59;4970317;28;20054;-76
2021/12/11 08:35:44;;;;;;;9.82;6.68;;;;;;;4.24;70.13;92812.03;4955384;28;20046;-75
2021/12/11 08:38:10;;;;;;;14.05;9.60;;;;;;;4.67;69.85;92837.94;4968847;28;20031;-76
2021/12/11 08:40:40;;;;;;;12.48;7.53;;;;;;;4.50;69.29;92828.03;4970098;28;20053;-76
2021/12/11 08:43:08;;;;;;;12.27;6.90;;;;;;;4.47;69.22;92826.00;4970724;28;20046;-76
2021/12/11 08:45:46;;;;;;;11.32;6.82;;;;;;;4.65;68.25;92821.63;4955369;28;20042;-75
2021/12/11 08:48:16;;;;;;;11.30;6.47;;;;;;;4.76;68.14;92822.19;4955392;28;20058;-76
2021/12/11 08:50:45;;;;;;;13.55;6.28;;;;;;;4.98;67.01;92819.53;4968166;28;20057;-76
2021/12/11 08:53:11;;;;;;;18.77;7.38;;;;;;;5.09;66.13;92821.59;4968016;28;20055;-76
2021/12/11 08:55:41;;;;;;;7.45;5.45;;;;;;;5.22;65.30;92819.19;4972232;28;20027;-75
2021/12/11 08:58:12;;;;;;;7.30;4.95;;;;;;;5.36;64.45;92819.88;4972610;28;20070;-76
2021/12/11 09:00:43;;;;;;;10.02;5.18;;;;;;;5.06;63.94;92813.53;4975601;28;20722;-75
2021/12/11 09:03:17;;;;;;;8.50;5.20;;;;;;;4.65;66.68;92811.09;4973499;28;20074;-75
2021/12/11 09:06:04;;;;;;;9.73;5.55;;;;;;;4.57;66.41;92782.88;4970167;28;20117;-75
2021/12/11 09:08:40;;;;;;;9.43;5.57;;;;;;;4.87;66.17;92803.19;4969056;28;20050;-75
2021/12/11 09:11:09;;;;;;;5.65;4.38;;;;;;;4.93;65.20;92798.59;4964496;28;20026;-77
2021/12/11 09:13:43;;;;;;;8.43;4.65;;;;;;;4.86;66.29;92785.84;4969059;28;20038;-75
2021/12/11 09:16:19;;;;;;;5.27;3.50;;;;;;;5.10;65.29;92765.19;4967173;28;20115;-76
2021/12/11 09:18:50;;;;;;;5.63;3.85;;;;;;;5.48;63.54;92757.56;4969467;28;20050;-76
2021/12/11 09:21:27;;;;;;;5.88;2.92;;;;;;;5.32;62.74;92776.75;4967171;28;20038;-76
2021/12/11 09:24:15;;;;;;;4.82;2.65;;;;;;;5.38;63.24;92783.44;4970802;28;20042;-76
2021/12/11 09:26:53;;;;;;;4.32;3.03;;;;;;;5.14;63.14;92762.72;4975703;28;20050;-76
2021/12/11 09:29:22;;;;;;;4.40;3.53;;;;;;;4.93;64.15;92738.78;4972986;28;20058;-75
2021/12/11 09:32:14;;;;;;;6.55;4.00;;;;;;;5.08;64.72;92772.63;4971969;28;22227;-76
2021/12/11 09:34:55;;;;;;;11.50;6.38;;;;;;;5.18;64.58;92776.06;4963817;28;20481;-76
2021/12/11 09:37:21;;;;;;;9.05;5.15;;;;;;;5.20;64.13;92766.00;4977637;28;20038;-76
2021/12/11 09:39:53;;;;;;;9.35;3.95;;;;;;;5.68;63.64;92764.13;4954637;28;20055;-76
2021/12/11 09:42:19;;;;;;;8.60;3.72;;;;;;;5.64;62.59;92767.69;4968861;28;20043;-75
2021/12/11 09:44:55;;;;;;;18.55;11.77;;;;;;;5.66;63.38;92752.34;4952380;28;20575;-76
2021/12/11 09:47:37;;;;;;;39.95;17.63;;;;;;;5.88;63.78;92752.19;4970428;28;20023;-76
2021/12/11 09:50:09;;;;;;;24.33;12.65;;;;;;;5.93;63.27;92758.09;4958047;28;20473;-76
2021/12/11 09:52:37;;;;;;;23.20;15.02;;;;;;;5.92;63.46;92747.88;4953515;28;20815;-76
2021/12/11 09:55:10;;;;;;;22.23;14.02;;;;;;;6.10;62.90;92720.41;4976695;28;20042;-76
2021/12/11 09:57:40;;;;;;;15.93;10.65;;;;;;;6.41;61.18;92712.31;4980656;28;20041;-76
2021/12/11 10:00:38;;;;;;;10.18;6.63;;;;;;;6.71;59.52;92731.69;4979895;28;20526;-76
2021/12/11 10:03:05;;;;;;;10.50;4.75;;;;;;;6.22;59.44;92699.44;4949057;28;20046;-75
2021/12/11 10:05:44;;;;;;;8.02;4.10;;;;;;;5.86;59.54;92712.16;4972138;28;20107;-76
2021/12/11 10:11:17;;;;;;;3.42;2.55;;;;;;;5.46;60.18;92706.22;4967711;28;20049;-76
2021/12/11 10:13:58;;;;;;;3.75;3.35;;;;;;;5.46;61.76;92722.03;4948309;28;20079;-76
2021/12/11 10:16:30;;;;;;;3.53;2.63;;;;;;;5.35;62.10;92729.44;4970652;28;20464;-75
2021/12/11 10:18:56;;;;;;;4.40;3.25;;;;;;;5.18;62.33;92716.25;4974165;28;20041;-75
2021/12/11 10:21:24;;;;;;;3.15;2.70;;;;;;;5.23;63.24;92728.50;4968951;28;20040;-76
2021/12/11 10:23:54;;;;;;;3.10;2.35;;;;;;;5.08;63.39;92724.41;4970595;28;20103;-75
2021/12/11 10:26:22;;;;;;;5.78;2.80;;;;;;;4.94;64.33;92719.22;4968386;28;20197;-76
2021/12/11 10:28:51;;;;;;;2.50;2.30;;;;;;;4.76;64.13;92674.69;4970086;28;20045;-76
2021/12/11 10:31:28;;;;;;;2.78;2.53;;;;;;;4.72;64.09;92700.84;4949808;28;20032;-76
2021/12/11 10:34:01;;;;;;;2.30;2.03;;;;;;;4.87;64.11;92713.63;4961329;28;20133;-75
2021/12/11 10:36:31;;;;;;;3.40;2.50;;;;;;;4.96;64.53;92730.25;4951901;28;20178;-75
2021/12/11 10:38:59;;;;;;;5.15;2.67;;;;;;;4.86;64.74;92721.81;4959202;28;20042;-75
2021/12/11 10:41:26;;;;;;;3.20;2.33;;;;;;;4.77;64.74;92679.66;4967676;28;20516;-75
2021/12/11 10:44:03;;;;;;;4.70;2.60;;;;;;;4.92;65.15;92713.50;4966603;28;21079;-76
2021/12/11 10:46:35;;;;;;;3.40;2.42;;;;;;;4.85;65.66;92707.09;4953496;28;20038;-76
2021/12/11 10:49:03;;;;;;;4.90;2.67;;;;;;;4.68;66.27;92668.31;4970351;28;20675;-76
2021/12/11 10:51:33;;;;;;;3.70;2.72;;;;;;;4.84;66.48;92687.91;4969777;28;20079;-76
2021/12/11 10:54:03;;;;;;;4.07;2.88;;;;;;;4.98;66.00;92685.94;4977694;28;20035;-75
2021/12/11 10:56:28;;;;;;;2.42;2.00;;;;;;;5.03;65.61;92698.19;4960722;28;20156;-75
2021/12/11 10:59:24;;;;;;;3.40;2.72;;;;;;;5.04;66.07;92691.84;4974036;28;20490;-76
2021/12/11 11:01:55;;;;;;;5.55;2.92;;;;;;;4.99;66.43;92689.34;4968039;28;20520;-76
2021/12/11 11:04:29;;;;;;;5.20;3.45;;;;;;;4.99;66.99;92692.00;4963463;28;20039;-75
2021/12/11 11:06:55;;;;;;;5.78;3.67;;;;;;;5.09;66.78;92684.56;4969664;28;20038;-76
2021/12/11 11:09:22;;;;;;;6.68;4.75;;;;;;;5.22;66.88;92682.13;4969622;28;20498;-75
2021/12/11 11:11:51;;;;;;;9.52;3.60;;;;;;;5.19;67.11;92683.50;4966344;28;20034;-76
2021/12/11 11:14:17;;;;;;;5.00;3.80;;;;;;;5.08;66.62;92663.81;4961415;28;20069;-75
2021/12/11 11:16:46;;;;;;;9.48;4.88;;;;;;;5.17;66.62;92671.72;4967586;28;20513;-75
2021/12/11 11:19:12;;;;;;;12.20;4.70;;;;;;;5.06;66.82;92658.84;4968732;28;20043;-75
2021/12/11 11:21:43;;;;;;;5.05;3.50;;;;;;;5.19;67.63;92669.56;4963619;28;20517;-77
2021/12/11 11:24:10;;;;;;;4.32;3.15;;;;;;;5.08;66.29;92643.50;4954954;28;20510;-74
2021/12/11 11:26:40;;;;;;;4.38;3.17;;;;;;;5.16;66.21;92651.72;4950772;28;20268;-75
2021/12/11 11:29:09;;;;;;;4.72;2.88;;;;;;;5.26;66.09;92659.34;4959363;28;20624;-74
2021/12/11 11:31:38;;;;;;;7.70;4.57;;;;;;;5.33;66.32;92651.78;4951465;28;20078;-76
2021/12/11 11:34:09;;;;;;;5.88;3.63;;;;;;;5.26;66.04;92646.16;4953532;28;20042;-74
2021/12/11 11:36:35;;;;;;;6.15;3.92;;;;;;;5.07;66.71;92626.13;4935387;28;20043;-75
2021/12/11 11:39:06;;;;;;;9.25;3.78;;;;;;;4.96;66.44;92587.97;4951095;28;20449;-75
2021/12/11 11:41:38;;;;;;;6.60;4.20;;;;;;;5.16;67.03;92631.41;4956540;28;20751;-74
2021/12/11 11:44:04;;;;;;;15.98;6.38;;;;;;;5.00;68.12;92623.16;4953373;28;20045;-75
2021/12/11 11:46:30;;;;;;;9.63;5.65;;;;;;;5.10;68.16;92616.81;4955052;28;20537;-75
2021/12/11 11:48:59;;;;;;;10.20;5.10;;;;;;;5.16;68.27;92636.69;4959152;28;20374;-75
2021/12/11 11:51:24;;;;;;;8.52;4.30;;;;;;;5.31;68.13;92636.25;4952744;28;20035;-75
2021/12/11 11:53:50;;;;;;;5.03;4.07;;;;;;;5.29;67.90;92645.53;4956631;28;20050;-75
2021/12/11 11:56:20;;;;;;;6.00;3.97;;;;;;;5.20;68.58;92636.84;4955629;28;20030;-74
2021/12/11 11:58:46;;;;;;;5.78;4.05;;;;;;;5.12;68.49;92630.47;4953407;28;20376;-74
2021/12/11 12:01:17;;;;;;;5.45;4.20;;;;;;;4.91;68.74;92606.56;4958890;28;20523;-74
2021/12/11 12:03:43;;;;;;;5.85;3.75;;;;;;;4.84;68.47;92598.34;4940030;28;20046;-74
2021/12/11 12:06:12;;;;;;;4.88;3.50;;;;;;;4.90;69.17;92620.81;4935380;28;20157;-75